sensor_id;sensor_type;location;lat;lon;timestamp;pressure;altitude;pressure_sealevel;temperature;humidity
55010;BME280;40903;51.638;7.528;2023-03-26T00:01:21;100133.66;;;8.21;100.00
55010;BME280;40903;51.638;7.528;2023-03-26T00:03:47;100126.63;;;8.20;100.00
55010;BME280;40903;51.638;7.528;2023-03-26T00:06:18;100132.78;;;8.26;100.00
55010;BME280;40903;51.638;7.528;2023-03-26T00:08:44;100131.69;;;8.27;100.00
55010;BME280;40903;51.638;7.528;2023-03-26T00:11:11;100135.69;;;8.34;100.00
55010;BME280;40903;51.638;7.528;2023-03-26T00:13:36;100143.53;;;8.36;100.00
55010;BME280;40903;51.638;7.528;2023-03-26T00:16:02;100143.75;;;8.39;100.00
55010;BME280;40903;51.638;7.528;2023-03-26T00:18:28;100141.13;;;8.34;100.00
55010;BME280;40903;51.638;7.528;2023-03-26T00:20:59;100150.91;;;8.30;100.00
55010;BME280;40903;51.638;7.528;2023-03-26T00:23:25;100148.00;;;8.27;100.00
55010;BME280;40903;51.638;7.528;2023-03-26T00:25:51;100160.47;;;8.28;100.00
55010;BME280;40903;51.638;7.528;2023-03-26T00:28:17;100151.50;;;8.27;100.00
55010;BME280;40903;51.638;7.528;2023-03-26T00:30:45;100146.56;;;8.34;100.00
55010;BME280;40903;51.638;7.528;2023-03-26T00:33:11;100149.72;;;8.41;100.00
55010;BME280;40903;51.638;7.528;2023-03-26T00:35:36;100147.81;;;8.42;100.00
55010;BME280;40903;51.638;7.528;2023-03-26T00:38:01;100142.91;;;8.44;100.00
55010;BME280;40903;51.638;7.528;2023-03-26T00:40:27;100146.47;;;8.39;100.00
55010;BME280;40903;51.638;7.528;2023-03-26T00:42:53;100141.06;;;8.39;100.00
55010;BME280;40903;51.638;7.528;2023-03-26T00:45:21;100135.09;;;8.37;100.00
55010;BME280;40903;51.638;7.528;2023-03-26T00:47:47;100133.75;;;8.35;100.00
55010;BME280;40903;51.638;7.528;2023-03-26T00:50:12;100135.63;;;8.39;100.00
55010;BME280;40903;51.638;7.528;2023-03-26T00:52:43;100123.88;;;8.44;100.00
55010;BME280;40903;51.638;7.528;2023-03-26T00:55:10;100121.44;;;8.42;100.00
55010;BME280;40903;51.638;7.528;2023-03-26T00:57:35;100120.34;;;8.43;100.00
55010;BME280;40903;51.638;7.528;2023-03-26T01:00:01;100117.13;;;8.41;100.00
55010;BME280;40903;51.638;7.528;2023-03-26T01:02:40;100114.69;;;8.40;100.00
55010;BME280;40903;51.638;7.528;2023-03-26T01:07:49;100110.59;;;8.42;100.00
55010;BME280;40903;51.638;7.528;2023-03-26T01:10:15;100104.22;;;8.52;100.00
55010;BME280;40903;51.638;7.528;2023-03-26T01:12:41;100097.47;;;8.49;100.00
55010;BME280;40903;51.638;7.528;2023-03-26T01:15:06;100099.88;;;8.51;100.00
55010;BME280;40903;51.638;7.528;2023-03-26T01:17:32;100099.59;;;8.52;100.00
55010;BME280;40903;51.638;7.528;2023-03-26T01:22:38;100089.81;;;8.51;100.00
55010;BME280;40903;51.638;7.528;2023-03-26T01:25:04;100086.59;;;8.49;100.00
55010;BME280;40903;51.638;7.528;2023-03-26T01:27:49;100088.72;;;8.52;100.00
55010;BME280;40903;51.638;7.528;2023-03-26T01:30:20;100093.09;;;8.48;100.00
55010;BME280;40903;51.638;7.528;2023-03-26T01:35:43;100084.94;;;8.48;100.00
55010;BME280;40903;51.638;7.528;2023-03-26T01:43:23;100086.00;;;8.52;100.00
55010;BME280;40903;51.638;7.528;2023-03-26T01:45:51;100086.53;;;8.54;100.00
55010;BME280;40903;51.638;7.528;2023-03-26T01:48:17;100073.72;;;8.55;100.00
55010;BME280;40903;51.638;7.528;2023-03-26T01:50:43;100081.38;;;8.53;100.00
55010;BME280;40903;51.638;7.528;2023-03-26T01:53:08;100081.69;;;8.51;100.00
55010;BME280;40903;51.638;7.528;2023-03-26T01:55:41;100080.25;;;8.54;100.00
55010;BME280;40903;51.638;7.528;2023-03-26T01:58:34;100072.13;;;8.54;100.00
55010;BME280;40903;51.638;7.528;2023-03-26T02:03:44;100071.56;;;8.57;100.00
55010;BME280;40903;51.638;7.528;2023-03-26T02:06:14;100066.91;;;8.57;100.00
55010;BME280;40903;51.638;7.528;2023-03-26T02:08:44;100066.84;;;8.62;100.00
55010;BME280;40903;51.638;7.528;2023-03-26T02:11:12;100062.22;;;8.63;100.00
55010;BME280;40903;51.638;7.528;2023-03-26T02:13:39;100062.44;;;8.66;100.00
55010;BME280;40903;51.638;7.528;2023-03-26T02:16:06;100059.72;;;8.66;100.00
55010;BME280;40903;51.638;7.528;2023-03-26T02:18:32;100054.81;;;8.68;100.00
55010;BME280;40903;51.638;7.528;2023-03-26T02:21:02;100048.84;;;8.66;100.00
55010;BME280;40903;51.638;7.528;2023-03-26T02:23:27;100042.09;;;8.64;100.00
55010;BME280;40903;51.638;7.528;2023-03-26T02:25:53;100037.41;;;8.69;100.00
55010;BME280;40903;51.638;7.528;2023-03-26T02:28:19;100034.69;;;8.69;100.00
55010;BME280;40903;51.638;7.528;2023-03-26T02:30:44;100029.00;;;8.66;100.00
55010;BME280;40903;51.638;7.528;2023-03-26T02:33:11;100026.53;;;8.69;100.00
55010;BME280;40903;51.638;7.528;2023-03-26T02:35:39;100030.41;;;8.63;100.00
55010;BME280;40903;51.638;7.528;2023-03-26T02:38:04;100027.69;;;8.63;100.00
55010;BME280;40903;51.638;7.528;2023-03-26T02:40:30;100020.56;;;8.67;100.00
55010;BME280;40903;51.638;7.528;2023-03-26T02:42:58;100024.16;;;8.63;100.00
55010;BME280;40903;51.638;7.528;2023-03-26T02:45:24;100014.63;;;8.65;100.00
55010;BME280;40903;51.638;7.528;2023-03-26T02:47:49;100017.53;;;8.69;100.00
55010;BME280;40903;51.638;7.528;2023-03-26T02:50:15;100015.94;;;8.68;100.00
55010;BME280;40903;51.638;7.528;2023-03-26T02:52:40;100011.38;;;8.63;100.00
55010;BME280;40903;51.638;7.528;2023-03-26T02:55:09;100007.59;;;8.64;100.00
55010;BME280;40903;51.638;7.528;2023-03-26T02:57:34;100015.19;;;8.62;100.00
55010;BME280;40903;51.638;7.528;2023-03-26T03:00:00;100011.09;;;8.65;100.00
55010;BME280;40903;51.638;7.528;2023-03-26T03:02:37;100005.88;;;8.68;100.00
55010;BME280;40903;51.638;7.528;2023-03-26T03:05:03;100001.47;;;8.72;100.00
55010;BME280;40903;51.638;7.528;2023-03-26T03:07:29;99992.56;;;8.67;100.00
55010;BME280;40903;51.638;7.528;2023-03-26T03:09:55;100004.31;;;8.62;100.00
55010;BME280;40903;51.638;7.528;2023-03-26T03:12:20;99999.72;;;8.63;100.00
55010;BME280;40903;51.638;7.528;2023-03-26T03:14:45;99997.38;;;8.56;100.00
55010;BME280;40903;51.638;7.528;2023-03-26T03:17:10;100000.91;;;8.57;100.00
55010;BME280;40903;51.638;7.528;2023-03-26T03:19:36;99996.84;;;8.54;100.00
55010;BME280;40903;51.638;7.528;2023-03-26T03:22:01;99992.28;;;8.50;100.00
55010;BME280;40903;51.638;7.528;2023-03-26T03:24:27;99990.69;;;8.49;100.00
55010;BME280;40903;51.638;7.528;2023-03-26T03:26:52;99989.88;;;8.48;100.00
55010;BME280;40903;51.638;7.528;2023-03-26T03:29:20;99983.72;;;8.43;100.00
55010;BME280;40903;51.638;7.528;2023-03-26T03:31:46;99981.56;;;8.40;100.00
55010;BME280;40903;51.638;7.528;2023-03-26T03:34:11;99978.94;;;8.35;100.00
55010;BME280;40903;51.638;7.528;2023-03-26T03:36:36;99973.22;;;8.36;100.00
55010;BME280;40903;51.638;7.528;2023-03-26T03:39:02;99972.72;;;8.34;100.00
55010;BME280;40903;51.638;7.528;2023-03-26T03:41:29;99974.38;;;8.30;100.00
55010;BME280;40903;51.638;7.528;2023-03-26T03:43:54;99965.72;;;8.28;100.00
55010;BME280;40903;51.638;7.528;2023-03-26T03:46:19;99966.91;;;8.22;100.00
55010;BME280;40903;51.638;7.528;2023-03-26T03:48:44;99961.16;;;8.24;100.00
55010;BME280;40903;51.638;7.528;2023-03-26T03:51:13;99960.59;;;8.27;100.00
55010;BME280;40903;51.638;7.528;2023-03-26T03:53:39;99944.81;;;8.29;100.00
55010;BME280;40903;51.638;7.528;2023-03-26T03:56:05;99944.81;;;8.29;100.00
55010;BME280;40903;51.638;7.528;2023-03-26T03:58:34;99952.72;;;8.25;100.00
55010;BME280;40903;51.638;7.528;2023-03-26T04:00:59;99948.69;;;8.23;100.00
55010;BME280;40903;51.638;7.528;2023-03-26T04:03:28;99939.53;;;8.19;100.00
55010;BME280;40903;51.638;7.528;2023-03-26T04:05:53;99936.84;;;8.14;100.00
55010;BME280;40903;51.638;7.528;2023-03-26T04:08:21;99932.56;;;8.08;100.00
55010;BME280;40903;51.638;7.528;2023-03-26T04:10:47;99935.44;;;7.98;100.00
55010;BME280;40903;51.638;7.528;2023-03-26T04:13:13;99936.81;;;7.95;100.00
55010;BME280;40903;51.638;7.528;2023-03-26T04:15:39;99935.00;;;7.91;100.00
55010;BME280;40903;51.638;7.528;2023-03-26T04:18:05;99935.34;;;7.84;100.00
55010;BME280;40903;51.638;7.528;2023-03-26T04:20:35;99928.06;;;7.80;100.00
55010;BME280;40903;51.638;7.528;2023-03-26T04:23:00;99937.09;;;7.75;100.00
55010;BME280;40903;51.638;7.528;2023-03-26T04:25:25;99938.25;;;7.69;100.00
55010;BME280;40903;51.638;7.528;2023-03-26T04:27:54;99933.41;;;7.67;100.00
55010;BME280;40903;51.638;7.528;2023-03-26T04:30:22;99932.06;;;7.64;100.00
55010;BME280;40903;51.638;7.528;2023-03-26T04:32:47;99922.91;;;7.60;100.00
55010;BME280;40903;51.638;7.528;2023-03-26T04:35:13;99924.28;;;7.58;100.00
55010;BME280;40903;51.638;7.528;2023-03-26T04:37:40;99912.41;;;7.54;100.00
55010;BME280;40903;51.638;7.528;2023-03-26T04:40:10;99916.53;;;7.51;100.00
55010;BME280;40903;51.638;7.528;2023-03-26T04:42:36;99909.75;;;7.49;100.00
55010;BME280;40903;51.638;7.528;2023-03-26T04:45:06;99904.34;;;7.49;100.00
55010;BME280;40903;51.638;7.528;2023-03-26T04:47:31;99903.75;;;7.52;100.00
55010;BME280;40903;51.638;7.528;2023-03-26T04:50:00;99904.25;;;7.54;100.00
55010;BME280;40903;51.638;7.528;2023-03-26T04:52:25;99904.25;;;7.54;100.00
55010;BME280;40903;51.638;7.528;2023-03-26T04:54:51;99901.28;;;7.55;100.00
55010;BME280;40903;51.638;7.528;2023-03-26T04:57:21;99900.19;;;7.56;100.00
55010;BME280;40903;51.638;7.528;2023-03-26T04:59:48;99892.81;;;7.57;100.00
55010;BME280;40903;51.638;7.528;2023-03-26T05:02:14;99887.94;;;7.59;100.00
55010;BME280;40903;51.638;7.528;2023-03-26T05:04:39;99888.16;;;7.62;100.00
55010;BME280;40903;51.638;7.528;2023-03-26T05:07:05;99893.28;;;7.64;100.00
55010;BME280;40903;51.638;7.528;2023-03-26T05:09:31;99879.41;;;7.65;100.00
55010;BME280;40903;51.638;7.528;2023-03-26T05:11:56;99879.66;;;7.68;100.00
55010;BME280;40903;51.638;7.528;2023-03-26T05:14:22;99879.38;;;7.70;100.00
55010;BME280;40903;51.638;7.528;2023-03-26T05:16:48;99875.56;;;7.71;100.00
55010;BME280;40903;51.638;7.528;2023-03-26T05:19:14;99867.94;;;7.73;100.00
55010;BME280;40903;51.638;7.528;2023-03-26T05:21:39;99867.34;;;7.76;100.00
55010;BME280;40903;51.638;7.528;2023-03-26T05:24:05;99869.47;;;7.79;100.00
55010;BME280;40903;51.638;7.528;2023-03-26T05:26:32;99863.75;;;7.80;100.00
55010;BME280;40903;51.638;7.528;2023-03-26T05:28:58;99855.34;;;7.82;100.00
55010;BME280;40903;51.638;7.528;2023-03-26T05:31:23;99855.03;;;7.83;100.00
55010;BME280;40903;51.638;7.528;2023-03-26T05:33:51;99856.03;;;7.87;100.00
55010;BME280;40903;51.638;7.528;2023-03-26T05:36:16;99853.06;;;7.89;100.00
55010;BME280;40903;51.638;7.528;2023-03-26T05:38:43;99852.47;;;7.92;100.00
55010;BME280;40903;51.638;7.528;2023-03-26T05:41:14;99851.34;;;7.93;100.00
55010;BME280;40903;51.638;7.528;2023-03-26T05:43:40;99844.81;;;7.94;100.00
55010;BME280;40903;51.638;7.528;2023-03-26T05:46:05;99842.34;;;7.97;100.00
55010;BME280;40903;51.638;7.528;2023-03-26T05:48:31;99830.88;;;8.00;100.00
55010;BME280;40903;51.638;7.528;2023-03-26T05:50:56;99831.38;;;8.02;100.00
55010;BME280;40903;51.638;7.528;2023-03-26T05:53:22;99827.28;;;8.05;100.00
55010;BME280;40903;51.638;7.528;2023-03-26T05:55:49;99819.66;;;8.07;100.00
55010;BME280;40903;51.638;7.528;2023-03-26T05:58:19;99817.44;;;8.09;100.00
55010;BME280;40903;51.638;7.528;2023-03-26T06:00:45;99819.59;;;8.12;100.00
55010;BME280;40903;51.638;7.528;2023-03-26T06:03:13;99811.63;;;8.15;100.00
55010;BME280;40903;51.638;7.528;2023-03-26T06:05:38;99812.16;;;8.17;100.00
55010;BME280;40903;51.638;7.528;2023-03-26T06:08:04;99805.88;;;8.22;100.00
55010;BME280;40903;51.638;7.528;2023-03-26T06:10:30;99807.47;;;8.23;100.00
55010;BME280;40903;51.638;7.528;2023-03-26T06:12:55;99798.22;;;8.24;100.00
55010;BME280;40903;51.638;7.528;2023-03-26T06:15:20;99797.66;;;8.27;100.00
55010;BME280;40903;51.638;7.528;2023-03-26T06:17:46;99785.38;;;8.29;100.00
55010;BME280;40903;51.638;7.528;2023-03-26T06:20:11;99795.13;;;8.30;100.00
55010;BME280;40903;51.638;7.528;2023-03-26T06:22:37;99788.59;;;8.31;100.00
55010;BME280;40903;51.638;7.528;2023-03-26T06:25:02;99787.19;;;8.34;100.00
55010;BME280;40903;51.638;7.528;2023-03-26T06:27:27;99782.59;;;8.34;100.00
55010;BME280;40903;51.638;7.528;2023-03-26T06:29:52;99778.94;;;8.39;100.00
55010;BME280;40903;51.638;7.528;2023-03-26T06:32:18;99783.00;;;8.41;100.00
55010;BME280;40903;51.638;7.528;2023-03-26T06:34:44;99771.03;;;8.42;100.00
55010;BME280;40903;51.638;7.528;2023-03-26T06:37:09;99779.38;;;8.46;100.00
55010;BME280;40903;51.638;7.528;2023-03-26T06:39:34;99776.34;;;8.47;100.00
55010;BME280;40903;51.638;7.528;2023-03-26T06:42:00;99780.09;;;8.51;100.00
55010;BME280;40903;51.638;7.528;2023-03-26T06:44:25;99772.75;;;8.52;100.00
55010;BME280;40903;51.638;7.528;2023-03-26T06:46:50;99775.47;;;8.52;100.00
55010;BME280;40903;51.638;7.528;2023-03-26T06:49:15;99772.75;;;8.52;100.00
55010;BME280;40903;51.638;7.528;2023-03-26T06:51:40;99781.91;;;8.56;100.00
55010;BME280;40903;51.638;7.528;2023-03-26T06:54:07;99768.53;;;8.59;100.00
55010;BME280;40903;51.638;7.528;2023-03-26T06:56:32;99772.25;;;8.63;100.00
55010;BME280;40903;51.638;7.528;2023-03-26T06:58:58;99774.06;;;8.68;100.00
55010;BME280;40903;51.638;7.528;2023-03-26T07:01:23;99773.78;;;8.69;100.00
55010;BME280;40903;51.638;7.528;2023-03-26T07:03:51;99774.78;;;8.73;100.00
55010;BME280;40903;51.638;7.528;2023-03-26T07:06:16;99770.66;;;8.76;100.00
55010;BME280;40903;51.638;7.528;2023-03-26T07:08:42;99775.78;;;8.77;100.00
55010;BME280;40903;51.638;7.528;2023-03-26T07:11:07;99768.25;;;8.74;100.00
55010;BME280;40903;51.638;7.528;2023-03-26T07:13:32;99772.56;;;8.75;100.00
55010;BME280;40903;51.638;7.528;2023-03-26T07:15:57;99769.56;;;8.77;100.00
55010;BME280;40903;51.638;7.528;2023-03-26T07:18:23;99765.44;;;8.79;100.00
55010;BME280;40903;51.638;7.528;2023-03-26T07:20:48;99759.06;;;8.84;100.00
55010;BME280;40903;51.638;7.528;2023-03-26T07:23:14;99754.97;;;8.86;100.00
55010;BME280;40903;51.638;7.528;2023-03-26T07:25:44;99753.56;;;8.89;100.00
55010;BME280;40903;51.638;7.528;2023-03-26T07:28:12;99750.22;;;8.92;100.00
55010;BME280;40903;51.638;7.528;2023-03-26T07:30:45;99749.63;;;8.95;100.00
55010;BME280;40903;51.638;7.528;2023-03-26T07:33:16;99753.66;;;8.97;100.00
55010;BME280;40903;51.638;7.528;2023-03-26T07:35:54;99752.53;;;8.98;100.00
55010;BME280;40903;51.638;7.528;2023-03-26T07:38:24;99748.41;;;9.01;100.00
55010;BME280;40903;51.638;7.528;2023-03-26T07:45:45;99737.84;;;8.99;100.00
55010;BME280;40903;51.638;7.528;2023-03-26T07:48:11;99738.63;;;9.00;100.00
55010;BME280;40903;51.638;7.528;2023-03-26T07:50:40;99742.16;;;9.00;100.00
55010;BME280;40903;51.638;7.528;2023-03-26T07:53:06;99729.91;;;9.03;100.00
55010;BME280;40903;51.638;7.528;2023-03-26T07:55:32;99725.44;;;9.07;100.00
55010;BME280;40903;51.638;7.528;2023-03-26T08:00:28;99721.22;;;9.14;100.00
55010;BME280;40903;51.638;7.528;2023-03-26T08:08:34;99717.75;;;9.22;100.00
55010;BME280;40903;51.638;7.528;2023-03-26T08:20:52;99710.06;;;9.38;100.00
55010;BME280;40903;51.638;7.528;2023-03-26T08:23:25;99710.28;;;9.41;100.00
55010;BME280;40903;51.638;7.528;2023-03-26T08:25:58;99715.72;;;9.41;100.00
55010;BME280;40903;51.638;7.528;2023-03-26T08:28:33;99704.41;;;9.48;100.00
55010;BME280;40903;51.638;7.528;2023-03-26T08:31:02;99703.16;;;9.54;100.00
55010;BME280;40903;51.638;7.528;2023-03-26T08:33:27;99702.19;;;9.50;100.00
55010;BME280;40903;51.638;7.528;2023-03-26T08:35:54;99700.31;;;9.59;100.00
55010;BME280;40903;51.638;7.528;2023-03-26T08:38:20;99703.28;;;9.70;100.00
55010;BME280;40903;51.638;7.528;2023-03-26T08:48:39;99690.81;;;9.91;100.00
55010;BME280;40903;51.638;7.528;2023-03-26T08:51:27;99689.38;;;9.94;100.00
55010;BME280;40903;51.638;7.528;2023-03-26T08:56:43;99688.44;;;9.98;100.00
55010;BME280;40903;51.638;7.528;2023-03-26T09:02:29;99683.06;;;10.07;100.00
55010;BME280;40903;51.638;7.528;2023-03-26T09:15:16;99686.97;;;10.14;100.00
55010;BME280;40903;51.638;7.528;2023-03-26T09:28:12;99678.19;;;9.95;100.00
55010;BME280;40903;51.638;7.528;2023-03-26T09:30:58;99682.66;;;9.91;100.00
55010;BME280;40903;51.638;7.528;2023-03-26T09:38:34;99669.56;;;9.80;100.00
55010;BME280;40903;51.638;7.528;2023-03-26T09:41:14;99677.44;;;9.81;100.00
55010;BME280;40903;51.638;7.528;2023-03-26T09:49:00;99676.19;;;9.87;100.00
55010;BME280;40903;51.638;7.528;2023-03-26T09:51:37;99680.84;;;9.87;100.00
55010;BME280;40903;51.638;7.528;2023-03-26T09:56:47;99681.63;;;9.87;100.00
55010;BME280;40903;51.638;7.528;2023-03-26T09:59:23;99671.56;;;9.88;100.00
55010;BME280;40903;51.638;7.528;2023-03-26T10:04:40;99674.78;;;9.90;100.00
55010;BME280;40903;51.638;7.528;2023-03-26T10:12:32;99678.84;;;9.79;100.00
55010;BME280;40903;51.638;7.528;2023-03-26T10:28:04;99662.47;;;9.92;100.00
55010;BME280;40903;51.638;7.528;2023-03-26T10:33:40;99662.63;;;9.96;100.00
55010;BME280;40903;51.638;7.528;2023-03-26T10:41:42;99667.66;;;10.02;100.00
55010;BME280;40903;51.638;7.528;2023-03-26T10:46:50;99655.53;;;10.08;100.00
55010;BME280;40903;51.638;7.528;2023-03-26T10:51:51;99654.94;;;10.20;100.00
55010;BME280;40903;51.638;7.528;2023-03-26T10:54:25;99658.00;;;10.27;100.00
55010;BME280;40903;51.638;7.528;2023-03-26T10:56:54;99656.28;;;10.31;100.00
55010;BME280;40903;51.638;7.528;2023-03-26T10:59:23;99656.00;;;10.41;100.00
55010;BME280;40903;51.638;7.528;2023-03-26T11:04:31;99645.47;;;10.48;100.00
55010;BME280;40903;51.638;7.528;2023-03-26T11:07:03;99649.63;;;10.54;100.00
55010;BME280;40903;51.638;7.528;2023-03-26T11:12:06;99642.78;;;10.65;100.00
55010;BME280;40903;51.638;7.528;2023-03-26T11:17:11;99637.53;;;10.77;100.00
55010;BME280;40903;51.638;7.528;2023-03-26T11:19:43;99640.25;;;10.77;100.00
55010;BME280;40903;51.638;7.528;2023-03-26T11:29:58;99638.03;;;10.96;100.00
55010;BME280;40903;51.638;7.528;2023-03-26T11:32:48;99636.59;;;10.90;100.00
55010;BME280;40903;51.638;7.528;2023-03-26T11:37:47;99633.06;;;10.89;100.00
55010;BME280;40903;51.638;7.528;2023-03-26T11:40:16;99637.72;;;10.97;100.00
55010;BME280;40903;51.638;7.528;2023-03-26T11:42:45;99634.03;;;11.02;100.00
55010;BME280;40903;51.638;7.528;2023-03-26T11:45:15;99629.88;;;11.04;100.00
55010;BME280;40903;51.638;7.528;2023-03-26T11:47:51;99635.97;;;11.10;100.00
55010;BME280;40903;51.638;7.528;2023-03-26T11:50:24;99629.22;;;11.16;100.00
55010;BME280;40903;51.638;7.528;2023-03-26T11:52:50;99630.16;;;11.03;100.00
55010;BME280;40903;51.638;7.528;2023-03-26T11:55:15;99636.75;;;11.02;100.00
55010;BME280;40903;51.638;7.528;2023-03-26T11:57:43;99631.28;;;11.02;100.00
55010;BME280;40903;51.638;7.528;2023-03-26T12:00:16;99631.63;;;11.00;100.00
55010;BME280;40903;51.638;7.528;2023-03-26T12:02:44;99626.47;;;10.99;100.00
55010;BME280;40903;51.638;7.528;2023-03-26T12:05:14;99629.53;;;10.97;100.00
55010;BME280;40903;51.638;7.528;2023-03-26T12:07:43;99619.25;;;11.03;100.00
55010;BME280;40903;51.638;7.528;2023-03-26T12:10:19;99622.81;;;11.12;100.00
55010;BME280;40903;51.638;7.528;2023-03-26T12:12:45;99621.22;;;11.19;100.00
55010;BME280;40903;51.638;7.528;2023-03-26T12:15:15;99618.66;;;11.31;100.00
55010;BME280;40903;51.638;7.528;2023-03-26T12:17:43;99620.25;;;11.32;100.00
55010;BME280;40903;51.638;7.528;2023-03-26T12:22:53;99615.44;;;11.29;100.00
55010;BME280;40903;51.638;7.528;2023-03-26T12:25:24;99613.00;;;11.36;100.00
55010;BME280;40903;51.638;7.528;2023-03-26T12:27:51;99612.38;;;11.31;100.00
55010;BME280;40903;51.638;7.528;2023-03-26T12:30:25;99609.00;;;11.42;100.00
55010;BME280;40903;51.638;7.528;2023-03-26T12:32:51;99616.56;;;11.45;100.00
55010;BME280;40903;51.638;7.528;2023-03-26T12:35:26;99610.75;;;11.47;100.00
55010;BME280;40903;51.638;7.528;2023-03-26T12:37:53;99605.16;;;11.52;100.00
55010;BME280;40903;51.638;7.528;2023-03-26T12:40:27;99614.47;;;11.59;100.00
55010;BME280;40903;51.638;7.528;2023-03-26T12:42:56;99611.75;;;11.68;100.00
55010;BME280;40903;51.638;7.528;2023-03-26T12:45:27;99615.25;;;11.76;100.00
55010;BME280;40903;51.638;7.528;2023-03-26T12:47:53;99606.72;;;11.78;98.47
55010;BME280;40903;51.638;7.528;2023-03-26T12:50:18;99611.22;;;11.82;97.57
55010;BME280;40903;51.638;7.528;2023-03-26T12:55:20;99609.25;;;11.91;100.00
55010;BME280;40903;51.638;7.528;2023-03-26T12:57:53;99607.66;;;11.90;99.40
55010;BME280;40903;51.638;7.528;2023-03-26T13:21:24;99608.09;;;12.09;95.83
55010;BME280;40903;51.638;7.528;2023-03-26T13:29:00;99593.31;;;12.10;94.86
55010;BME280;40903;51.638;7.528;2023-03-26T13:44:31;99588.22;;;11.92;95.59
55010;BME280;40903;51.638;7.528;2023-03-26T13:47:04;99591.72;;;11.92;96.43
55010;BME280;40903;51.638;7.528;2023-03-26T13:49:35;99597.44;;;11.71;90.68
55010;BME280;40903;51.638;7.528;2023-03-26T13:52:05;99596.31;;;11.72;95.24
55010;BME280;40903;51.638;7.528;2023-03-26T13:57:23;99601.97;;;11.58;94.70
55010;BME280;40903;51.638;7.528;2023-03-26T13:59:52;99599.53;;;11.57;94.63
55010;BME280;40903;51.638;7.528;2023-03-26T14:02:24;99600.97;;;11.46;96.16
55010;BME280;40903;51.638;7.528;2023-03-26T14:04:55;99603.06;;;11.40;95.81
55010;BME280;40903;51.638;7.528;2023-03-26T14:07:26;99604.81;;;11.36;96.63
55010;BME280;40903;51.638;7.528;2023-03-26T14:09:56;99606.28;;;11.25;97.39
55010;BME280;40903;51.638;7.528;2023-03-26T14:12:26;99607.25;;;11.21;99.61
55010;BME280;40903;51.638;7.528;2023-03-26T14:14:59;99601.75;;;11.04;98.21
55010;BME280;40903;51.638;7.528;2023-03-26T14:17:39;99604.34;;;10.92;97.98
55010;BME280;40903;51.638;7.528;2023-03-26T14:30:41;99615.88;;;10.89;100.00
55010;BME280;40903;51.638;7.528;2023-03-26T14:35:57;99621.00;;;10.82;100.00
55010;BME280;40903;51.638;7.528;2023-03-26T14:49:03;99637.28;;;10.48;100.00
55010;BME280;40903;51.638;7.528;2023-03-26T14:51:33;99638.53;;;10.42;100.00
55010;BME280;40903;51.638;7.528;2023-03-26T14:54:07;99642.03;;;10.34;100.00
55010;BME280;40903;51.638;7.528;2023-03-26T15:04:40;99659.38;;;9.85;100.00
55010;BME280;40903;51.638;7.528;2023-03-26T15:07:17;99655.22;;;9.88;100.00
55010;BME280;40903;51.638;7.528;2023-03-26T15:09:54;99659.69;;;9.84;100.00
55010;BME280;40903;51.638;7.528;2023-03-26T15:12:31;99659.31;;;9.77;100.00
55010;BME280;40903;51.638;7.528;2023-03-26T15:30:52;99693.69;;;9.51;100.00
55010;BME280;40903;51.638;7.528;2023-03-26T15:41:27;99699.19;;;9.38;100.00
55010;BME280;40903;51.638;7.528;2023-03-26T15:46:30;99702.44;;;9.26;100.00
55010;BME280;40903;51.638;7.528;2023-03-26T15:54:13;99721.22;;;9.14;100.00
55010;BME280;40903;51.638;7.528;2023-03-26T16:04:47;99732.88;;;9.15;100.00
55010;BME280;40903;51.638;7.528;2023-03-26T16:10:19;99731.88;;;9.11;100.00
55010;BME280;40903;51.638;7.528;2023-03-26T16:15:19;99754.97;;;8.86;100.00
55010;BME280;40903;51.638;7.528;2023-03-26T16:20:34;99758.25;;;8.70;100.00
55010;BME280;40903;51.638;7.528;2023-03-26T16:23:17;99768.44;;;8.64;100.00
55010;BME280;40903;51.638;7.528;2023-03-26T16:25:57;99765.19;;;8.62;100.00
55010;BME280;40903;51.638;7.528;2023-03-26T16:28:30;99770.94;;;8.61;100.00
55010;BME280;40903;51.638;7.528;2023-03-26T16:39:23;99786.31;;;8.52;100.00
55010;BME280;40903;51.638;7.528;2023-03-26T16:41:56;99787.34;;;8.56;100.00
55010;BME280;40903;51.638;7.528;2023-03-26T16:51:51;99813.63;;;8.60;100.00
55010;BME280;40903;51.638;7.528;2023-03-26T17:05:16;99842.00;;;8.54;100.00
55010;BME280;40903;51.638;7.528;2023-03-26T17:08:00;99850.22;;;8.49;100.00
55010;BME280;40903;51.638;7.528;2023-03-26T17:10:39;99854.34;;;8.47;100.00
55010;BME280;40903;51.638;7.528;2023-03-26T17:25:33;99886.72;;;8.25;100.00
55010;BME280;40903;51.638;7.528;2023-03-26T17:28:25;99899.59;;;8.19;100.00
55010;BME280;40903;51.638;7.528;2023-03-26T17:33:32;99901.69;;;8.04;100.00
55010;BME280;40903;51.638;7.528;2023-03-26T17:41:07;99918.69;;;7.91;100.00
55010;BME280;40903;51.638;7.528;2023-03-26T17:46:31;99933.50;;;7.80;100.00
55010;BME280;40903;51.638;7.528;2023-03-26T17:49:11;99930.00;;;7.79;100.00
55010;BME280;40903;51.638;7.528;2023-03-26T17:51:47;99934.94;;;7.72;100.00
55010;BME280;40903;51.638;7.528;2023-03-26T17:54:26;99942.88;;;7.69;100.00
55010;BME280;40903;51.638;7.528;2023-03-26T17:56:53;99950.28;;;7.64;100.00
55010;BME280;40903;51.638;7.528;2023-03-26T17:59:21;99964.09;;;7.62;100.00
55010;BME280;40903;51.638;7.528;2023-03-26T18:01:52;99956.28;;;7.61;100.00
55010;BME280;40903;51.638;7.528;2023-03-26T18:04:23;99965.03;;;7.53;100.00
55010;BME280;40903;51.638;7.528;2023-03-26T18:11:54;99988.41;;;7.49;100.00
55010;BME280;40903;51.638;7.528;2023-03-26T18:14:26;99987.91;;;7.47;100.00
55010;BME280;40903;51.638;7.528;2023-03-26T18:16:59;99997.13;;;7.46;100.00
55010;BME280;40903;51.638;7.528;2023-03-26T18:19:25;99999.34;;;7.44;100.00
55010;BME280;40903;51.638;7.528;2023-03-26T18:21:51;100003.94;;;7.43;100.00
55010;BME280;40903;51.638;7.528;2023-03-26T18:24:36;100002.66;;;7.36;100.00